Time;durP1;ratioP1;P1;durP2;ratioP2;P2;SDS_P1;SDS_P2;PMS_P1;PMS_P2;Temp;Humidity;BMP_temperature;BMP_pressure;BME280_temperature;BME280_humidity;BME280_pressure;Samples;Min_cycle;Max_cycle;Signal;HPM_P1;HPM_P2
2022/04/11 00:00:26;;;;;;;;;;;;;;;;;;;;;
2022/04/11 00:02:50;;;;;;;105.35;85.05;;;26.60;79.50;;;;;;1824771;77;21199;-83
2022/04/11 00:05:22;;;;;;;98.78;79.07;;;26.60;79.00;;;;;;1831554;77;21686;-83
2022/04/11 00:07:53;;;;;;;94.60;77.95;;;26.60;79.60;;;;;;1811436;77;21083;-83
2022/04/11 00:10:29;;;;;;;89.83;75.08;;;26.70;78.70;;;;;;1828431;77;21095;-83
2022/04/11 00:12:59;;;;;;;89.30;74.17;;;26.70;78.40;;;;;;1825475;78;21205;-83
2022/04/11 00:15:33;;;;;;;86.37;75.08;;;26.80;78.50;;;;;;1828390;77;21245;-82
2022/04/11 00:18:04;;;;;;;91.30;76.00;;;26.70;78.20;;;;;;1822931;78;21186;-81
2022/04/11 00:20:36;;;;;;;91.32;74.27;;;26.80;77.90;;;;;;1825501;77;21153;-82
2022/04/11 00:23:07;;;;;;;91.65;74.60;;;26.80;77.60;;;;;;1825736;78;21206;-82
2022/04/11 00:25:38;;;;;;;98.22;77.42;;;26.80;77.20;;;;;;1823447;78;21075;-82
2022/04/11 00:28:09;;;;;;;93.12;76.75;;;26.80;77.50;;;;;;1835811;77;21165;-82
2022/04/11 00:30:40;;;;;;;90.45;75.67;;;26.80;77.40;;;;;;1828773;77;21095;-82
2022/04/11 00:33:12;;;;;;;91.30;77.47;;;26.80;77.40;;;;;;1826371;78;21146;-82
2022/04/11 00:35:43;;;;;;;93.65;77.05;;;26.90;77.60;;;;;;1828644;78;21209;-81
2022/04/11 00:38:14;;;;;;;86.08;75.47;;;26.90;77.30;;;;;;1829076;78;21088;-81
2022/04/11 00:40:45;;;;;;;85.05;73.02;;;26.90;76.80;;;;;;1830453;77;21095;-80
2022/04/11 00:43:18;;;;;;;92.33;75.80;;;26.90;76.60;;;;;;1813820;77;21237;-82
2022/04/11 00:45:52;;;;;;;89.07;74.87;;;27.00;76.70;;;;;;1826155;78;21142;-83
2022/04/11 00:48:23;;;;;;;85.55;72.82;;;27.10;76.50;;;;;;1809263;78;21214;-83
2022/04/11 00:50:57;;;;;;;91.78;73.25;;;27.10;76.50;;;;;;1802880;78;21077;-82
2022/04/11 00:53:30;;;;;;;89.72;74.95;;;27.20;76.30;;;;;;1798891;79;21560;-81
2022/04/11 00:56:02;;;;;;;84.17;71.12;;;27.20;76.00;;;;;;1800403;80;21611;-81
2022/04/11 00:58:33;;;;;;;88.03;71.25;;;27.30;75.70;;;;;;1801904;79;21155;-81
2022/04/11 01:01:05;;;;;;;90.65;73.47;;;27.30;75.40;;;;;;1803511;79;21100;-82
2022/04/11 01:03:37;;;;;;;89.10;73.50;;;27.40;75.60;;;;;;1803139;79;21540;-82
2022/04/11 01:06:08;;;;;;;85.53;71.70;;;27.40;75.30;;;;;;1803785;79;21609;-80
2022/04/11 01:08:40;;;;;;;89.45;71.85;;;27.50;75.50;;;;;;1803394;79;21105;-81
2022/04/11 01:11:14;;;;;;;86.45;72.58;;;27.50;75.90;;;;;;1804399;79;21560;-81
2022/04/11 01:13:45;;;;;;;84.28;70.67;;;27.50;75.20;;;;;;1798178;79;21102;-82
2022/04/11 01:16:17;;;;;;;93.45;70.08;;;27.60;75.00;;;;;;1784707;80;21180;-82
2022/04/11 01:18:48;;;;;;;83.92;69.45;;;27.60;74.70;;;;;;1784047;80;21118;-82
2022/04/11 01:21:19;;;;;;;88.97;71.50;;;27.70;74.00;;;;;;1789822;79;21171;-81
2022/04/11 01:23:50;;;;;;;81.60;70.40;;;27.80;73.70;;;;;;1803681;79;21108;-82
2022/04/11 01:26:23;;;;;;;88.55;68.30;;;27.80;73.60;;;;;;1801927;79;21180;-81
2022/04/11 01:28:55;;;;;;;82.95;68.85;;;27.90;72.80;;;;;;1803303;79;21159;-82
2022/04/11 01:31:30;;;;;;;86.77;68.67;;;27.90;72.60;;;;;;1799374;79;21108;-81
2022/04/11 01:34:01;;;;;;;82.82;69.75;;;28.00;72.80;;;;;;1803184;79;21105;-82
2022/04/11 01:36:32;;;;;;;82.75;70.12;;;28.00;72.60;;;;;;1803960;79;21104;-82
2022/04/11 01:39:03;;;;;;;80.85;66.47;;;28.10;72.20;;;;;;1799838;79;21089;-82
2022/04/11 01:41:34;;;;;;;80.42;66.65;;;28.20;72.10;;;;;;1801098;79;21108;-82
2022/04/11 01:44:06;;;;;;;80.97;65.45;;;28.30;71.70;;;;;;1803107;79;21116;-81
2022/04/11 01:46:40;;;;;;;83.37;67.45;;;28.30;71.80;;;;;;1797917;79;21080;-82
2022/04/11 01:49:10;;;;;;;81.55;67.80;;;28.40;71.00;;;;;;1826423;77;21661;-82
2022/04/11 01:51:41;;;;;;;78.17;65.60;;;28.50;70.40;;;;;;1841257;77;21093;-82
2022/04/11 01:54:12;;;;;;;78.42;65.05;;;28.60;70.40;;;;;;1840408;77;21648;-82
2022/04/11 01:56:43;;;;;;;76.05;63.80;;;28.60;69.60;;;;;;1843314;77;21178;-82
2022/04/11 01:59:16;;;;;;;76.82;63.70;;;28.60;68.80;;;;;;1838829;77;21107;-82
2022/04/11 02:01:46;;;;;;;74.30;64.05;;;28.70;69.00;;;;;;1840703;77;21170;-82
2022/04/11 02:04:18;;;;;;;71.02;60.25;;;28.80;68.90;;;;;;1833858;77;21100;-82
2022/04/11 02:06:48;;;;;;;70.75;60.35;;;28.80;68.60;;;;;;1839967;77;21159;-83
2022/04/11 02:09:19;;;;;;;74.53;61.88;;;28.90;69.00;;;;;;1834713;77;21217;-82
2022/04/11 02:11:56;;;;;;;73.20;63.05;;;29.00;67.80;;;;;;1831528;78;21202;-82
2022/04/11 02:14:27;;;;;;;76.05;62.20;;;29.10;67.10;;;;;;1836375;77;21169;-82
2022/04/11 02:16:58;;;;;;;69.45;58.92;;;29.20;66.80;;;;;;1832755;77;21116;-82
2022/04/11 02:19:29;;;;;;;71.87;61.25;;;29.30;66.70;;;;;;1832406;78;21270;-82
2022/04/11 02:22:00;;;;;;;72.12;61.85;;;29.40;66.40;;;;;;1794927;80;21205;-83
2022/04/11 02:24:31;;;;;;;72.80;59.45;;;29.50;65.70;;;;;;1793634;80;21120;-81
2022/04/11 02:27:04;;;;;;;74.03;59.08;;;29.60;66.10;;;;;;1793526;80;21182;-82
2022/04/11 02:29:35;;;;;;;69.87;58.30;;;29.70;65.00;;;;;;1794306;80;21167;-84
2022/04/11 02:32:07;;;;;;;66.40;57.20;;;29.80;64.80;;;;;;1798523;80;21173;-83
2022/04/11 02:34:37;;;;;;;75.47;59.10;;;29.90;64.70;;;;;;1829463;78;21165;-82
2022/04/11 02:37:08;;;;;;;68.15;56.92;;;30.00;64.20;;;;;;1832273;78;21080;-84
2022/04/11 02:39:39;;;;;;;68.40;58.00;;;30.10;64.20;;;;;;1832701;78;21107;-84
2022/04/11 02:42:10;;;;;;;70.08;57.70;;;30.20;63.60;;;;;;1830856;78;21621;-83
2022/04/11 02:44:41;;;;;;;65.15;55.90;;;30.30;63.40;;;;;;1831077;78;21205;-83
2022/04/11 02:47:11;;;;;;;75.35;62.85;;;30.40;64.50;;;;;;1826249;78;21156;-84
2022/04/11 02:49:43;;;;;;;72.37;58.28;;;30.50;63.10;;;;;;1805901;78;21229;-83
2022/04/11 02:52:15;;;;;;;65.87;57.60;;;30.60;62.30;;;;;;1799874;79;21128;-84
2022/04/11 02:54:46;;;;;;;67.37;57.33;;;30.70;63.10;;;;;;1800153;79;21140;-84
2022/04/11 02:57:16;;;;;;;66.45;56.80;;;30.80;62.40;;;;;;1797171;79;21159;-84
2022/04/11 02:59:47;;;;;;;71.28;58.00;;;30.90;60.40;;;;;;1794432;79;21140;-84
2022/04/11 03:02:19;;;;;;;67.15;57.98;;;31.00;60.60;;;;;;1798103;79;21162;-83
2022/04/11 03:04:51;;;;;;;65.22;55.25;;;31.00;60.80;;;;;;1800320;79;21678;-84
2022/04/11 03:07:22;;;;;;;63.58;55.38;;;31.10;61.30;;;;;;1800558;79;21113;-83
2022/04/11 03:09:53;;;;;;;66.92;54.70;;;31.20;61.00;;;;;;1800226;79;21580;-83
2022/04/11 03:12:27;;;;;;;65.35;54.40;;;31.20;60.20;;;;;;1797926;79;21151;-83
2022/04/11 03:14:57;;;;;;;62.85;53.13;;;31.40;60.10;;;;;;1800510;80;21081;-85
2022/04/11 03:17:28;;;;;;;65.83;53.23;;;31.40;59.10;;;;;;1802253;79;21647;-83
2022/04/11 03:19:59;;;;;;;61.20;54.05;;;31.50;59.50;;;;;;1803492;79;21080;-83
2022/04/11 03:22:30;;;;;;;65.60;52.53;;;31.50;58.40;;;;;;1802922;79;21112;-83
2022/04/11 03:25:01;;;;;;;70.00;54.35;;;31.50;58.20;;;;;;1804319;79;21085;-82
2022/04/11 03:27:32;;;;;;;59.23;52.65;;;31.60;58.20;;;;;;1804159;79;21167;-84
2022/04/11 03:30:03;;;;;;;61.68;51.20;;;31.60;58.10;;;;;;1801083;79;21061;-84
2022/04/11 03:32:34;;;;;;;56.48;49.93;;;31.60;58.60;;;;;;1801940;79;21119;-84
2022/04/11 03:35:05;;;;;;;55.40;47.25;;;31.70;60.00;;;;;;1791105;79;21111;-83
2022/04/11 03:37:36;;;;;;;49.10;43.35;;;31.80;67.20;;;;;;1798021;80;21100;-84
2022/04/11 03:40:08;;;;;;;48.50;42.60;;;32.10;63.90;;;;;;1803329;79;21080;-83
2022/04/11 03:42:40;;;;;;;50.63;42.98;;;32.10;55.00;;;;;;1804029;79;21180;-84
2022/04/11 03:45:11;;;;;;;54.05;42.08;;;32.20;55.90;;;;;;1800591;79;21080;-83
2022/04/11 03:47:42;;;;;;;48.02;40.90;;;32.40;54.10;;;;;;1800778;79;21103;-84
2022/04/11 03:50:13;;;;;;;46.58;41.55;;;32.50;51.60;;;;;;1810226;77;21123;-84
2022/04/11 03:52:44;;;;;;;54.80;42.80;;;32.60;51.80;;;;;;1833101;78;21122;-84
2022/04/11 03:55:16;;;;;;;50.25;42.50;;;32.70;53.60;;;;;;1832795;78;21099;-83
2022/04/11 03:57:49;;;;;;;48.95;43.85;;;32.80;51.90;;;;;;1832910;78;21103;-83
2022/04/11 04:00:20;;;;;;;48.48;43.23;;;33.00;55.10;;;;;;1831580;78;21125;-83
2022/04/11 04:05:23;;;;;;;49.23;43.48;;;33.10;53.10;;;;;;1829891;78;21190;-84
2022/04/11 04:07:54;;;;;;;56.42;44.98;;;33.20;51.80;;;;;;1829596;78;21245;-84
2022/04/11 04:10:29;;;;;;;51.77;45.17;;;33.30;52.90;;;;;;1830449;78;21161;-83
2022/04/11 04:13:01;;;;;;;49.05;43.85;;;33.30;52.60;;;;;;1830683;78;21157;-84
2022/04/11 04:15:32;;;;;;;49.20;43.78;;;33.30;52.50;;;;;;1827142;78;21105;-82
2022/04/11 04:18:03;;;;;;;51.48;44.48;;;33.40;52.60;;;;;;1825403;78;21276;-83
2022/04/11 04:20:34;;;;;;;49.55;44.20;;;33.40;51.40;;;;;;1832214;78;21111;-82
2022/04/11 04:23:07;;;;;;;55.20;44.93;;;33.40;51.00;;;;;;1827483;78;21088;-82
2022/04/11 04:25:38;;;;;;;52.88;44.98;;;33.40;51.20;;;;;;1831269;78;21106;-83
2022/04/11 04:28:09;;;;;;;57.55;45.33;;;33.40;51.50;;;;;;1830709;78;21071;-83
2022/04/11 04:30:41;;;;;;;52.33;43.87;;;33.50;52.20;;;;;;1831207;78;21087;-83
2022/04/11 04:33:16;;;;;;;49.88;44.53;;;33.50;52.90;;;;;;1832688;78;21173;-82
2022/04/11 04:35:47;;;;;;;47.62;42.58;;;33.60;51.70;;;;;;1832400;78;21107;-83
2022/04/11 04:38:18;;;;;;;48.80;43.17;;;33.80;50.50;;;;;;1831166;78;21295;-84
2022/04/11 04:40:48;;;;;;;50.65;43.58;;;33.80;50.90;;;;;;1827195;78;21111;-83
2022/04/11 04:43:19;;;;;;;48.63;42.60;;;33.80;50.80;;;;;;1827621;78;21094;-83
2022/04/11 04:45:56;;;;;;;48.23;42.13;;;33.80;50.20;;;;;;1827485;78;21136;-83
2022/04/11 04:48:27;;;;;;;48.10;41.50;;;33.80;50.50;;;;;;1833077;78;21088;-83
2022/04/11 04:50:58;;;;;;;48.02;40.92;;;33.90;49.50;;;;;;1832911;77;21287;-84
2022/04/11 04:53:30;;;;;;;50.95;42.80;;;33.90;49.50;;;;;;1833282;78;21103;-84
2022/04/11 04:56:01;;;;;;;48.33;43.02;;;33.90;49.20;;;;;;1834344;78;21111;-85
2022/04/11 04:58:31;;;;;;;47.48;42.10;;;33.90;49.30;;;;;;1827255;78;21153;-82
2022/04/11 05:01:02;;;;;;;46.68;41.48;;;34.00;49.20;;;;;;1827131;78;21066;-84
2022/04/11 05:03:35;;;;;;;44.33;39.50;;;34.00;49.80;;;;;;1827088;78;21589;-85
2022/04/11 05:06:06;;;;;;;46.13;41.33;;;34.10;48.00;;;;;;1827602;78;21149;-84
2022/04/11 05:08:37;;;;;;;46.33;40.88;;;34.10;48.30;;;;;;1830169;78;21166;-84
2022/04/11 05:11:08;;;;;;;51.18;42.15;;;34.20;49.80;;;;;;1827795;78;21185;-84
2022/04/11 05:13:40;;;;;;;48.73;43.10;;;34.30;49.90;;;;;;1829720;78;21126;-82
2022/04/11 05:16:11;;;;;;;49.73;41.75;;;34.30;51.70;;;;;;1830972;77;21110;-83
2022/04/11 05:18:48;;;;;;;49.40;42.05;;;34.50;52.00;;;;;;1838229;77;21172;-84
2022/04/11 05:21:19;;;;;;;49.42;41.28;;;34.40;51.40;;;;;;1827790;77;21057;-83
2022/04/11 05:23:50;;;;;;;49.60;42.85;;;34.40;48.70;;;;;;1827973;78;21160;-84
2022/04/11 05:26:22;;;;;;;48.45;41.60;;;34.40;48.60;;;;;;1831078;78;21076;-84
2022/04/11 05:28:53;;;;;;;45.67;41.05;;;34.50;48.70;;;;;;1831359;78;21165;-84
2022/04/11 05:31:24;;;;;;;48.17;41.85;;;34.50;48.60;;;;;;1831525;78;21083;-83
2022/04/11 05:33:55;;;;;;;45.48;39.80;;;34.50;48.40;;;;;;1831776;77;21228;-84
2022/04/11 05:36:26;;;;;;;46.05;41.02;;;34.40;48.40;;;;;;1830661;78;21178;-83
2022/04/11 05:38:58;;;;;;;46.88;41.80;;;34.40;49.10;;;;;;1826988;78;21108;-83
2022/04/11 05:41:29;;;;;;;48.87;40.78;;;34.30;48.70;;;;;;1830167;78;21111;-83
2022/04/11 05:44:00;;;;;;;44.63;39.75;;;34.20;48.90;;;;;;1833717;77;21550;-83
2022/04/11 05:46:31;;;;;;;47.80;42.17;;;34.20;47.80;;;;;;1832549;78;21233;-84
2022/04/11 05:49:02;;;;;;;48.52;41.30;;;34.30;48.40;;;;;;1827347;78;21207;-82
2022/04/11 05:51:33;;;;;;;45.05;40.20;;;34.30;48.00;;;;;;1830857;78;21121;-83
2022/04/11 05:54:04;;;;;;;46.98;41.80;;;34.30;47.70;;;;;;1815912;78;21178;-84
2022/04/11 05:56:35;;;;;;;48.60;41.90;;;34.40;47.70;;;;;;1817504;78;21155;-83
2022/04/11 05:59:08;;;;;;;47.03;42.17;;;34.50;47.80;;;;;;1814332;79;21178;-85
2022/04/11 06:01:40;;;;;;;49.25;42.03;;;34.50;47.80;;;;;;1815623;79;21139;-84
2022/04/11 06:04:12;;;;;;;46.75;41.13;;;34.60;47.50;;;;;;1815904;79;21241;-84
2022/04/11 06:06:45;;;;;;;46.48;40.70;;;34.60;48.40;;;;;;1810135;79;21485;-83
2022/04/11 06:09:19;;;;;;;47.38;41.68;;;34.60;47.70;;;;;;1813661;79;21127;-84
2022/04/11 06:11:51;;;;;;;48.80;41.58;;;34.70;47.50;;;;;;1815663;79;21115;-82
2022/04/11 06:14:22;;;;;;;47.45;41.92;;;34.80;47.30;;;;;;1815516;79;21147;-83
2022/04/11 06:16:53;;;;;;;47.10;41.42;;;34.90;46.80;;;;;;1814224;79;21181;-84
2022/04/11 06:19:33;;;;;;;49.35;41.80;;;35.00;47.20;;;;;;1815452;78;21191;-84
2022/04/11 06:22:02;;;;;;;48.85;42.15;;;35.00;46.70;;;;;;1816310;79;21116;-85
2022/04/11 06:24:33;;;;;;;47.90;41.10;;;34.90;47.10;;;;;;1815581;79;21189;-82
2022/04/11 06:27:04;;;;;;;47.93;43.02;;;34.90;46.60;;;;;;1815378;78;21073;-83
2022/04/11 06:29:35;;;;;;;50.17;43.33;;;34.90;47.50;;;;;;1812342;79;21378;-84
2022/04/11 06:32:06;;;;;;;48.33;43.05;;;34.90;47.10;;;;;;1813641;79;21226;-84
2022/04/11 06:34:39;;;;;;;46.42;41.42;;;34.80;46.70;;;;;;1814761;79;21111;-82
2022/04/11 06:37:10;;;;;;;47.73;42.80;;;34.80;47.10;;;;;;1814512;79;21100;-84
2022/04/11 06:39:41;;;;;;;45.78;40.90;;;34.80;47.40;;;;;;1814648;79;21143;-83
2022/04/11 06:42:13;;;;;;;48.45;42.20;;;34.80;47.50;;;;;;1814027;79;21183;-83
2022/04/11 06:44:44;;;;;;;48.87;42.98;;;34.80;47.30;;;;;;1813922;77;21162;-82
2022/04/11 06:47:15;;;;;;;49.05;42.17;;;34.80;47.10;;;;;;1815981;79;21150;-83
2022/04/11 06:49:47;;;;;;;46.60;41.80;;;34.80;46.50;;;;;;1814997;79;21274;-83
2022/04/11 06:52:20;;;;;;;49.10;43.00;;;34.80;46.70;;;;;;1787519;78;21555;-83
2022/04/11 06:54:51;;;;;;;47.30;42.35;;;34.80;46.90;;;;;;1833951;78;21103;-84
2022/04/11 06:57:23;;;;;;;50.00;43.30;;;34.80;46.90;;;;;;1833262;77;21239;-83
2022/04/11 06:59:54;;;;;;;49.00;44.03;;;34.80;47.60;;;;;;1835873;78;21272;-83
2022/04/11 07:02:26;;;;;;;46.98;42.17;;;34.70;47.00;;;;;;1828188;78;21059;-82
2022/04/11 07:04:56;;;;;;;50.88;44.38;;;34.70;47.10;;;;;;1827437;78;21157;-84
2022/04/11 07:07:27;;;;;;;46.83;42.08;;;34.70;47.50;;;;;;1827323;78;21114;-83
2022/04/11 07:10:00;;;;;;;47.50;42.27;;;34.60;47.50;;;;;;1827272;78;21110;-84
2022/04/11 07:12:31;;;;;;;48.28;43.15;;;34.60;47.00;;;;;;1827692;78;21146;-82
2022/04/11 07:15:03;;;;;;;48.75;41.88;;;34.70;47.20;;;;;;1833305;78;21091;-82
2022/04/11 07:17:33;;;;;;;45.15;40.40;;;34.70;46.90;;;;;;1833342;78;21519;-82
2022/04/11 07:20:07;;;;;;;46.20;41.20;;;34.80;46.80;;;;;;1833332;78;21107;-83
2022/04/11 07:22:38;;;;;;;46.48;41.63;;;34.80;46.60;;;;;;1828225;78;21703;-83
2022/04/11 07:25:09;;;;;;;45.92;40.55;;;34.70;46.60;;;;;;1833164;78;21111;-82
2022/04/11 07:27:41;;;;;;;49.58;42.27;;;34.70;46.80;;;;;;1832407;78;21170;-83
2022/04/11 07:30:12;;;;;;;46.92;42.38;;;34.80;47.10;;;;;;1833474;78;21098;-82
2022/04/11 07:32:43;;;;;;;47.03;41.98;;;34.70;47.00;;;;;;1833346;78;21210;-82
2022/04/11 07:35:14;;;;;;;48.60;42.30;;;34.80;47.10;;;;;;1832897;78;21165;-82
2022/04/11 07:37:45;;;;;;;48.73;43.40;;;34.80;46.70;;;;;;1832871;78;21111;-83
2022/04/11 07:40:17;;;;;;;49.10;41.60;;;34.90;47.00;;;;;;1833154;78;21150;-82
2022/04/11 07:42:51;;;;;;;47.27;42.23;;;34.90;46.90;;;;;;1831263;78;21076;-83
2022/04/11 07:45:23;;;;;;;49.98;42.55;;;34.90;46.70;;;;;;1829565;78;21107;-82
2022/04/11 07:47:55;;;;;;;43.98;39.33;;;34.90;46.50;;;;;;1832252;78;21182;-83
2022/04/11 07:50:27;;;;;;;45.63;40.67;;;34.90;46.50;;;;;;1827747;78;21083;-83
2022/04/11 07:52:58;;;;;;;45.85;40.95;;;34.90;46.90;;;;;;1827151;78;21206;-84
2022/04/11 07:55:31;;;;;;;45.90;41.08;;;34.80;46.80;;;;;;1829428;78;21114;-84
2022/04/11 07:58:02;;;;;;;45.38;40.78;;;34.80;46.60;;;;;;1833332;78;21107;-82
2022/04/11 08:00:39;;;;;;;46.25;41.42;;;34.80;46.60;;;;;;1834250;78;21181;-83
2022/04/11 08:03:11;;;;;;;48.95;43.55;;;34.80;46.80;;;;;;1835886;78;21075;-84
2022/04/11 08:05:45;;;;;;;46.42;41.63;;;34.80;46.70;;;;;;1829194;78;21537;-84
2022/04/11 08:08:16;;;;;;;48.30;43.15;;;34.80;46.90;;;;;;1829668;78;21068;-83
2022/04/11 08:10:47;;;;;;;47.73;42.33;;;34.70;46.90;;;;;;1829378;78;21188;-84
2022/04/11 08:13:18;;;;;;;45.10;40.23;;;34.70;47.10;;;;;;1831502;78;21137;-83
2022/04/11 08:15:49;;;;;;;46.02;41.33;;;34.70;47.30;;;;;;1827238;78;21172;-83
2022/04/11 08:18:20;;;;;;;45.23;40.67;;;34.60;47.30;;;;;;1827384;78;21165;-84
2022/04/11 08:20:51;;;;;;;46.68;41.75;;;34.70;48.20;;;;;;1829396;78;21095;-84
2022/04/11 08:23:22;;;;;;;47.10;42.13;;;34.70;47.30;;;;;;1828036;78;21102;-83
2022/04/11 08:25:57;;;;;;;47.08;41.95;;;34.70;47.10;;;;;;1827415;78;21562;-84
2022/04/11 08:28:30;;;;;;;47.98;41.75;;;34.80;47.00;;;;;;1828730;78;21096;-84
2022/04/11 08:31:02;;;;;;;51.90;43.58;;;34.80;47.40;;;;;;1830808;78;21197;-85
2022/04/11 08:33:38;;;;;;;47.10;41.63;;;34.70;47.50;;;;;;1833683;78;21075;-84
2022/04/11 08:36:09;;;;;;;45.88;41.45;;;34.70;47.00;;;;;;1803590;79;21107;-83
2022/04/11 08:38:40;;;;;;;46.10;41.25;;;34.80;46.90;;;;;;1818401;78;21169;-83
2022/04/11 08:41:15;;;;;;;44.98;40.12;;;34.70;47.00;;;;;;1831113;78;21133;-84
2022/04/11 08:43:47;;;;;;;45.38;40.75;;;34.70;46.90;;;;;;1833378;78;21214;-83
2022/04/11 08:46:19;;;;;;;45.33;40.30;;;34.70;47.10;;;;;;1833572;77;21072;-83
2022/04/11 08:48:50;;;;;;;46.10;41.20;;;34.60;47.50;;;;;;1833145;78;21186;-83
2022/04/11 08:51:24;;;;;;;47.78;42.55;;;34.60;48.10;;;;;;1829247;78;21106;-83
2022/04/11 08:53:55;;;;;;;45.75;40.85;;;34.50;47.90;;;;;;1829274;77;21160;-83
2022/04/11 08:56:30;;;;;;;48.85;42.83;;;34.40;48.80;;;;;;1832494;78;21126;-82
2022/04/11 08:59:02;;;;;;;46.83;40.88;;;34.40;49.70;;;;;;1833561;78;21511;-83
2022/04/11 09:01:35;;;;;;;46.83;41.95;;;34.30;49.90;;;;;;1818046;78;21124;-84
2022/04/11 09:04:07;;;;;;;47.55;42.48;;;34.30;50.20;;;;;;1821827;78;21171;-83
2022/04/11 09:06:38;;;;;;;45.80;40.88;;;34.30;50.10;;;;;;1809395;78;21115;-84
2022/04/11 09:09:10;;;;;;;49.93;42.58;;;34.20;50.10;;;;;;1795942;78;21106;-83
2022/04/11 09:11:41;;;;;;;46.55;41.42;;;34.10;50.10;;;;;;1810411;79;21152;-84
2022/04/11 09:14:12;;;;;;;47.83;41.75;;;34.10;50.50;;;;;;1809280;78;21157;-83
2022/04/11 09:16:45;;;;;;;49.55;43.02;;;34.10;50.70;;;;;;1807623;79;21085;-84
2022/04/11 09:19:18;;;;;;;49.23;41.95;;;34.00;50.80;;;;;;1803967;78;21152;-83
2022/04/11 09:21:54;;;;;;;45.35;40.33;;;34.00;50.90;;;;;;1805570;79;22006;-84
2022/04/11 09:24:26;;;;;;;46.05;41.10;;;34.00;50.70;;;;;;1802359;79;21645;-83
2022/04/11 09:26:57;;;;;;;45.50;40.78;;;34.00;51.10;;;;;;1757543;81;21162;-82
2022/04/11 09:29:30;;;;;;;47.60;42.33;;;33.90;51.20;;;;;;1794577;78;21147;-83
2022/04/11 09:32:03;;;;;;;45.83;41.05;;;34.00;51.30;;;;;;1793652;79;21159;-82
2022/04/11 09:34:36;;;;;;;48.42;42.20;;;33.90;51.50;;;;;;1798673;79;21139;-84
2022/04/11 09:37:09;;;;;;;44.50;39.80;;;33.90;51.50;;;;;;1787848;78;21088;-84
2022/04/11 09:39:48;;;;;;;47.78;41.58;;;33.80;51.80;;;;;;1784948;79;21103;-83
2022/04/11 09:42:21;;;;;;;46.70;41.63;;;33.80;52.30;;;;;;1783047;78;21131;-84
2022/04/11 09:44:55;;;;;;;47.80;41.92;;;33.70;52.00;;;;;;1793517;79;21100;-84
2022/04/11 09:47:28;;;;;;;48.60;42.20;;;33.70;52.30;;;;;;1795319;79;21146;-82
2022/04/11 09:50:01;;;;;;;50.78;43.45;;;33.70;52.50;;;;;;1795747;79;21220;-83
2022/04/11 09:52:32;;;;;;;49.35;43.20;;;33.60;52.80;;;;;;1804361;79;21188;-83
2022/04/11 09:55:04;;;;;;;48.85;40.83;;;33.60;53.00;;;;;;1804934;78;21087;-83
2022/04/11 09:57:38;;;;;;;48.08;42.93;;;33.60;53.40;;;;;;1770336;80;21214;-84
2022/04/11 10:00:09;;;;;;;46.68;41.75;;;33.60;53.10;;;;;;1794524;79;21116;-80
2022/04/11 10:03:00;;;;;;;50.40;41.70;;;33.50;53.10;;;;;;1800822;79;21156;-86
2022/04/11 10:05:32;;;;;;;49.80;42.48;;;33.50;53.20;;;;;;1827379;78;21151;-83
2022/04/11 10:08:08;;;;;;;47.40;42.65;;;33.50;53.20;;;;;;1777700;78;21119;-83
2022/04/11 10:10:41;;;;;;;55.03;42.58;;;33.40;53.40;;;;;;1773047;80;21165;-82
2022/04/11 10:13:14;;;;;;;51.37;42.35;;;33.40;53.70;;;;;;1784449;80;21221;-83
2022/04/11 10:15:48;;;;;;;44.65;40.12;;;33.40;53.70;;;;;;1769584;80;21132;-84
2022/04/11 10:18:22;;;;;;;51.35;42.00;;;33.30;53.40;;;;;;1780753;79;21213;-84
2022/04/11 10:20:55;;;;;;;45.95;40.70;;;33.30;53.70;;;;;;1770356;80;21245;-84
2022/04/11 10:23:30;;;;;;;45.88;41.30;;;33.30;53.90;;;;;;1757258;80;21242;-84
2022/04/11 10:26:03;;;;;;;46.05;41.18;;;33.20;53.80;;;;;;1779492;79;21184;-85
2022/04/11 10:28:36;;;;;;;48.98;43.68;;;33.20;53.80;;;;;;1763085;80;21206;-85
2022/04/11 10:31:10;;;;;;;47.70;41.77;;;33.20;54.00;;;;;;1751693;80;21171;-85
2022/04/11 10:33:43;;;;;;;46.75;41.68;;;33.10;54.50;;;;;;1792758;79;21160;-84
2022/04/11 10:36:17;;;;;;;54.45;43.05;;;33.10;54.40;;;;;;1787853;79;21203;-85
2022/04/11 10:38:53;;;;;;;51.13;42.50;;;33.00;54.50;;;;;;1776713;79;21127;-84
2022/04/11 10:41:28;;;;;;;47.23;41.92;;;33.00;54.50;;;;;;1781851;79;21636;-84
2022/04/11 10:44:01;;;;;;;46.98;41.88;;;32.90;54.50;;;;;;1786855;80;21196;-85
2022/04/11 10:46:35;;;;;;;46.70;41.00;;;32.90;54.60;;;;;;1782881;80;21147;-86
2022/04/11 10:49:07;;;;;;;50.08;41.18;;;32.90;54.80;;;;;;1790159;79;21437;-84
2022/04/11 10:51:38;;;;;;;52.83;43.15;;;32.80;54.90;;;;;;1789458;80;21175;-85
2022/04/11 10:54:12;;;;;;;50.05;43.08;;;32.80;55.10;;;;;;1792353;80;21117;-84
2022/04/11 10:56:49;;;;;;;49.70;44.40;;;32.80;55.10;;;;;;1788595;80;21171;-84
2022/04/11 10:59:22;;;;;;;49.45;44.05;;;32.70;55.40;;;;;;1789685;80;21159;-83
2022/04/11 11:01:55;;;;;;;49.40;44.08;;;32.70;55.30;;;;;;1785618;80;21075;-84
2022/04/11 11:04:30;;;;;;;53.73;44.50;;;32.70;55.30;;;;;;1781325;79;21134;-84
2022/04/11 11:07:03;;;;;;;51.58;44.15;;;32.70;56.30;;;;;;1733898;82;21113;-84
2022/04/11 11:09:37;;;;;;;50.98;45.15;;;32.60;55.60;;;;;;1721822;82;21237;-83
2022/04/11 11:12:10;;;;;;;52.98;44.77;;;32.60;55.90;;;;;;1742574;82;21251;-83
2022/04/11 11:14:42;;;;;;;50.95;45.55;;;32.60;55.80;;;;;;1759078;81;21115;-84
2022/04/11 11:17:14;;;;;;;50.75;45.40;;;32.50;55.90;;;;;;1755372;81;21100;-84
2022/04/11 11:19:47;;;;;;;52.80;47.27;;;32.50;56.00;;;;;;1727527;82;21169;-83
2022/04/11 11:22:21;;;;;;;51.50;46.05;;;32.50;56.20;;;;;;1737094;81;21106;-83
2022/04/11 11:24:55;;;;;;;54.00;47.27;;;32.50;56.20;;;;;;1727501;81;21184;-83
2022/04/11 11:27:28;;;;;;;53.45;46.58;;;32.40;56.20;;;;;;1740704;81;21130;-83
2022/04/11 11:30:01;;;;;;;51.23;45.75;;;32.40;56.50;;;;;;1767844;81;21291;-85
2022/04/11 11:32:32;;;;;;;55.90;46.73;;;32.40;56.70;;;;;;1735208;81;21262;-83
2022/04/11 11:35:06;;;;;;;53.70;47.65;;;32.40;57.00;;;;;;1741406;82;21237;-85
2022/04/11 11:37:37;;;;;;;53.83;48.08;;;32.30;57.10;;;;;;1798841;78;21097;-83
2022/04/11 11:40:10;;;;;;;53.70;47.73;;;32.30;57.20;;;;;;1798312;79;21544;-83
2022/04/11 11:42:44;;;;;;;52.58;45.92;;;32.30;57.40;;;;;;1772193;80;21157;-85
2022/04/11 11:45:17;;;;;;;54.23;48.35;;;32.30;57.60;;;;;;1799650;78;21132;-84
2022/04/11 11:47:51;;;;;;;55.55;49.48;;;32.30;57.70;;;;;;1786619;80;21063;-83
2022/04/11 11:50:20;;;;;;;56.58;49.40;;;32.20;57.90;;;;;;1790689;80;21092;-83
2022/04/11 11:52:54;;;;;;;56.33;48.55;;;32.20;58.00;;;;;;1801152;80;21112;-83
2022/04/11 11:55:25;;;;;;;63.95;50.05;;;32.20;58.30;;;;;;1807215;78;21161;-84
2022/04/11 11:57:58;;;;;;;53.60;47.78;;;32.20;58.40;;;;;;1796981;79;21093;-84
2022/04/11 12:00:32;;;;;;;59.38;50.48;;;32.20;58.60;;;;;;1778292;79;21220;-84
2022/04/11 12:05:36;;;;;;;56.83;48.35;;;32.10;59.10;;;;;;1822895;78;21117;-83
2022/04/11 12:08:13;;;;;;;54.67;48.75;;;32.10;59.80;;;;;;1831047;78;21096;-85
2022/04/11 12:10:47;;;;;;;57.73;48.05;;;32.10;59.10;;;;;;1816646;78;21116;-84
2022/04/11 12:13:21;;;;;;;58.35;49.05;;;32.00;59.10;;;;;;1807006;79;21155;-85
2022/04/11 12:15:53;;;;;;;56.95;48.30;;;32.00;59.00;;;;;;1819488;78;21096;-83
2022/04/11 12:18:27;;;;;;;55.40;47.62;;;32.00;58.60;;;;;;1815001;78;21202;-84
2022/04/11 12:21:03;;;;;;;55.08;48.95;;;32.00;58.50;;;;;;1779059;78;21158;-83
2022/04/11 12:23:37;;;;;;;59.05;50.83;;;32.00;58.50;;;;;;1802895;79;21085;-84
2022/04/11 12:26:08;;;;;;;60.15;51.83;;;32.00;58.50;;;;;;1802696;79;21085;-84
2022/04/11 12:28:42;;;;;;;64.80;55.73;;;32.00;58.40;;;;;;1804330;78;21093;-83
2022/04/11 12:31:17;;;;;;;70.37;58.15;;;32.00;58.20;;;;;;1821856;78;21103;-84
2022/04/11 12:33:52;;;;;;;67.10;55.45;;;32.00;57.90;;;;;;1813312;78;21108;-84
2022/04/11 12:36:24;;;;;;;62.98;55.43;;;32.00;57.90;;;;;;1807838;78;21215;-84
2022/04/11 12:38:57;;;;;;;67.37;55.70;;;32.00;58.40;;;;;;1818133;78;21234;-83
2022/04/11 12:41:33;;;;;;;60.35;53.42;;;32.00;57.70;;;;;;1812749;77;21163;-84
2022/04/11 12:44:07;;;;;;;69.42;55.50;;;32.00;57.80;;;;;;1829807;78;21186;-84
2022/04/11 12:46:40;;;;;;;62.93;55.43;;;31.90;57.80;;;;;;1834748;78;21094;-84
2022/04/11 12:49:14;;;;;;;62.58;54.58;;;31.90;57.90;;;;;;1859145;77;21194;-84
2022/04/11 12:51:51;;;;;;;63.68;54.35;;;31.90;58.10;;;;;;1829757;78;21153;-83
2022/04/11 12:54:33;;;;;;;65.15;54.75;;;31.90;58.10;;;;;;1805928;78;21151;-84
2022/04/11 12:57:04;;;;;;;69.45;54.73;;;31.90;58.40;;;;;;1809901;78;21140;-84